createdAt,value
2023-09-12T00:00:46.111Z,30.08
2023-09-12T00:03:13.081Z,30.10
2023-09-12T00:05:39.925Z,28.73
2023-09-12T00:08:07.436Z,30.67
2023-09-12T00:10:34.244Z,30.92
2023-09-12T00:13:01.972Z,30.80
2023-09-12T00:15:29.073Z,30.23
2023-09-12T00:17:56.006Z,29.17
2023-09-12T00:20:22.773Z,30.23
2023-09-12T00:22:49.589Z,30.42
2023-09-12T00:25:16.361Z,28.90
2023-09-12T00:27:43.092Z,28.08
2023-09-12T00:30:10.280Z,27.83
2023-09-12T00:32:37.063Z,28.92
2023-09-12T00:35:04.229Z,28.33
2023-09-12T00:37:30.943Z,28.85
2023-09-12T00:39:57.628Z,27.77
2023-09-12T01:20:34.644Z,23.63
2023-09-12T01:23:46.524Z,26.77
2023-09-12T01:31:24.933Z,23.92
2023-09-12T01:33:56.841Z,24.52
2023-09-12T01:36:23.663Z,23.63
2023-09-12T01:38:50.635Z,24.42
2023-09-12T01:41:17.439Z,24.58
2023-09-12T01:43:44.692Z,24.80
2023-09-12T01:46:11.515Z,24.85
2023-09-12T01:48:39.769Z,24.02
2023-09-12T01:51:08.158Z,25.42
2023-09-12T01:53:37.342Z,26.13
2023-09-12T01:56:04.199Z,27.75
2023-09-12T01:58:32.124Z,26.63
2023-09-12T02:00:59.306Z,28.80
2023-09-12T02:03:26.289Z,29.98
2023-09-12T02:05:53.207Z,28.90
2023-09-12T02:08:19.906Z,28.85
2023-09-12T02:10:46.655Z,28.90
2023-09-12T02:13:13.328Z,28.77
2023-09-12T02:15:40.148Z,28.42
2023-09-12T02:18:07.104Z,29.10
2023-09-12T02:20:34.151Z,28.20
2023-09-12T02:23:00.817Z,29.35
2023-09-12T02:25:27.560Z,28.33
2023-09-12T02:27:54.249Z,28.90
2023-09-12T02:30:21.243Z,28.60
2023-09-12T02:32:48.054Z,28.92
2023-09-12T02:35:14.996Z,29.13
2023-09-12T02:37:41.759Z,27.67
2023-09-12T02:40:12.153Z,27.63
2023-09-12T02:42:39.159Z,28.65
2023-09-12T02:45:06.583Z,27.95
2023-09-12T02:47:33.471Z,27.65
2023-09-12T02:50:00.234Z,28.83
2023-09-12T02:52:27.051Z,29.05
2023-09-12T02:54:53.776Z,30.67
2023-09-12T02:57:20.492Z,28.58
2023-09-12T02:59:47.359Z,29.45
2023-09-12T03:02:14.155Z,30.42
2023-09-12T03:04:40.914Z,29.25
2023-09-12T03:07:07.561Z,29.83
2023-09-12T03:09:34.289Z,29.48
2023-09-12T03:12:04.599Z,28.77
2023-09-12T03:14:32.618Z,29.42
2023-09-12T03:16:59.496Z,30.15
2023-09-12T03:19:26.299Z,30.83
2023-09-12T03:21:53.080Z,31.20
2023-09-12T03:24:20.012Z,31.10
2023-09-12T03:26:46.732Z,33.08
2023-09-12T03:29:13.391Z,31.67
2023-09-12T03:31:40.182Z,33.78
2023-09-12T03:34:06.982Z,32.95
2023-09-12T03:36:33.690Z,34.28
2023-09-12T03:39:00.656Z,33.50
2023-09-12T03:41:27.400Z,34.00
2023-09-12T03:43:55.562Z,36.08
2023-09-12T03:46:22.890Z,33.40
2023-09-12T03:48:49.986Z,34.10
2023-09-12T03:51:16.942Z,35.08
2023-09-12T03:53:43.743Z,34.85
2023-09-12T03:56:13.500Z,34.35
2023-09-12T03:58:41.083Z,34.67
2023-09-12T04:01:08.180Z,33.30
2023-09-12T04:03:35.183Z,33.08
2023-09-12T04:06:02.023Z,34.10
2023-09-12T04:08:28.810Z,34.75
2023-09-12T04:10:55.480Z,34.92
2023-09-12T04:13:22.262Z,33.92
2023-09-12T04:15:49.314Z,33.28
2023-09-12T04:18:16.532Z,34.90
2023-09-12T04:20:43.395Z,34.28
2023-09-12T04:23:10.096Z,35.13
2023-09-12T04:25:36.860Z,34.08
2023-09-12T04:28:03.869Z,35.45
2023-09-12T04:30:30.619Z,36.35
2023-09-12T04:32:57.405Z,37.13
2023-09-12T04:35:26.137Z,35.53
2023-09-12T04:37:52.871Z,33.72
2023-09-12T04:40:19.666Z,34.15
2023-09-12T04:42:46.490Z,34.20
2023-09-12T04:45:13.223Z,34.38
2023-09-12T04:47:40.100Z,34.15
2023-09-12T04:50:07.314Z,34.13
2023-09-12T04:52:34.415Z,33.42
2023-09-12T04:55:02.075Z,32.50
2023-09-12T04:57:31.920Z,33.88
2023-09-12T04:59:59.560Z,34.85
2023-09-12T05:02:26.735Z,32.53
2023-09-12T05:04:53.631Z,35.22
2023-09-12T05:07:20.475Z,36.47
2023-09-12T05:09:47.232Z,33.70
2023-09-12T05:12:15.033Z,34.70
2023-09-12T05:14:41.907Z,33.92
2023-09-12T05:17:08.803Z,35.33
2023-09-12T05:19:35.517Z,35.47
2023-09-12T05:22:02.286Z,34.78
2023-09-12T05:24:29.030Z,33.15
2023-09-12T05:26:55.813Z,35.15
2023-09-12T05:29:22.583Z,32.80
2023-09-12T05:31:49.436Z,34.05
2023-09-12T05:34:16.255Z,33.42
2023-09-12T05:36:43.001Z,35.35
2023-09-12T05:39:10.365Z,35.40
2023-09-12T05:41:37.411Z,36.25
2023-09-12T05:44:04.858Z,34.42
2023-09-12T05:46:31.767Z,35.72
2023-09-12T05:48:58.687Z,36.72
2023-09-12T05:51:25.443Z,35.65
2023-09-12T05:53:52.300Z,34.63
2023-09-12T05:56:19.026Z,34.88
2023-09-12T05:58:45.774Z,37.03
2023-09-12T06:01:12.722Z,37.65
2023-09-12T06:03:39.969Z,34.60
2023-09-12T06:06:06.797Z,35.03
2023-09-12T06:08:33.460Z,36.33
2023-09-12T06:11:00.257Z,36.45
2023-09-12T06:13:26.953Z,37.38
2023-09-12T06:15:53.784Z,35.78
2023-09-12T06:18:21.463Z,36.03
2023-09-12T06:20:48.264Z,37.40
2023-09-12T06:23:15.028Z,37.38
2023-09-12T06:25:41.740Z,36.88
2023-09-12T06:28:11.170Z,38.28
2023-09-12T06:30:37.888Z,35.80
2023-09-12T06:33:04.957Z,35.30
2023-09-12T06:35:33.510Z,33.83
2023-09-12T06:38:00.290Z,36.65
2023-09-12T06:40:27.028Z,21.92
2023-09-12T06:42:53.792Z,33.38
2023-09-12T06:45:20.605Z,31.65
2023-09-12T06:47:47.483Z,26.33
2023-09-12T06:50:15.903Z,26.10
2023-09-12T06:52:43.150Z,28.70
2023-09-12T06:55:10.158Z,25.25
2023-09-12T06:57:36.917Z,26.63
2023-09-12T07:00:08.020Z,25.73
2023-09-12T07:02:34.903Z,31.45
2023-09-12T07:05:01.645Z,25.52
2023-09-12T07:07:28.342Z,24.38
2023-09-12T07:10:04.662Z,28.40
2023-09-12T07:12:38.844Z,27.20
2023-09-12T07:15:06.139Z,26.33
2023-09-12T07:17:32.884Z,29.40
2023-09-12T07:19:59.722Z,30.95
2023-09-12T07:22:27.260Z,29.67
2023-09-12T07:24:53.978Z,24.35
2023-09-12T07:27:20.790Z,26.00
2023-09-12T07:29:47.503Z,29.00
2023-09-12T07:32:14.213Z,25.55
2023-09-12T07:34:41.497Z,26.10
2023-09-12T07:37:08.163Z,29.70
2023-09-12T07:39:34.945Z,30.88
2023-09-12T07:42:01.880Z,30.20
2023-09-12T07:44:30.289Z,31.08
2023-09-12T07:46:57.055Z,32.00
2023-09-12T07:49:25.609Z,25.70
2023-09-12T07:51:52.422Z,31.02
2023-09-12T07:54:19.375Z,30.23
2023-09-12T07:56:46.062Z,29.20
2023-09-12T07:59:15.104Z,27.75
2023-09-12T08:01:42.077Z,30.25
2023-09-12T08:04:08.874Z,28.48
2023-09-12T08:06:47.772Z,32.47
2023-09-12T08:09:22.293Z,24.30
2023-09-12T08:11:49.067Z,27.60
2023-09-12T08:14:15.755Z,31.25
2023-09-12T08:16:42.533Z,26.92
2023-09-12T08:19:10.765Z,27.45
2023-09-12T08:21:39.196Z,31.60
2023-09-12T08:24:06.357Z,29.92
2023-09-12T08:26:33.172Z,30.35
2023-09-12T08:28:59.924Z,28.25
2023-09-12T08:31:28.486Z,32.40
2023-09-12T08:33:55.351Z,30.58
2023-09-12T08:36:22.178Z,25.40
2023-09-12T08:38:48.989Z,33.42
2023-09-12T08:41:15.806Z,27.75
2023-09-12T08:43:42.907Z,31.77
2023-09-12T08:46:11.411Z,31.75
2023-09-12T08:48:40.921Z,31.35
2023-09-12T08:51:08.580Z,31.00
2023-09-12T08:53:37.198Z,31.58
2023-09-12T08:56:05.029Z,28.48
2023-09-12T08:58:34.514Z,30.90
2023-09-12T09:01:02.016Z,28.10
2023-09-12T09:03:30.109Z,30.55
2023-09-12T09:05:58.505Z,32.00
2023-09-12T09:08:26.563Z,32.60
2023-09-12T09:10:57.666Z,30.73
2023-09-12T09:13:25.543Z,31.00
2023-09-12T09:16:12.405Z,30.10
2023-09-12T09:18:51.589Z,28.02
2023-09-12T09:21:26.402Z,30.08
2023-09-12T09:23:55.162Z,31.65
2023-09-12T09:26:22.383Z,31.70
2023-09-12T09:29:07.111Z,30.45
2023-09-12T09:31:34.753Z,32.00
2023-09-12T09:34:02.630Z,32.97
2023-09-12T09:36:29.458Z,31.80
2023-09-12T09:39:00.557Z,35.38
2023-09-12T09:41:28.051Z,34.55
2023-09-12T09:43:54.839Z,32.65
2023-09-12T09:46:22.071Z,31.75
2023-09-12T09:48:52.994Z,32.70
2023-09-12T09:51:20.231Z,31.70
2023-09-12T09:53:49.513Z,33.47
2023-09-12T09:56:17.445Z,33.47
2023-09-12T09:58:53.267Z,32.63
2023-09-12T10:01:28.481Z,34.50
2023-09-12T10:03:59.918Z,32.97
2023-09-12T10:06:28.586Z,31.35
2023-09-12T10:08:56.861Z,31.35
2023-09-12T10:11:29.550Z,28.77
2023-09-12T10:14:03.999Z,30.23
2023-09-12T10:16:36.121Z,28.55
2023-09-12T10:19:07.935Z,27.98
2023-09-12T10:21:36.014Z,29.60
2023-09-12T10:24:04.962Z,30.40
2023-09-12T10:26:36.029Z,28.30
2023-09-12T10:29:04.103Z,31.63
2023-09-12T10:31:32.890Z,30.25
2023-09-12T10:34:01.094Z,29.42
2023-09-12T10:36:29.638Z,30.85
2023-09-12T10:38:58.547Z,26.33
2023-09-12T10:41:25.840Z,27.90
2023-09-12T10:43:54.871Z,29.20
2023-09-12T10:46:22.578Z,26.85
2023-09-12T10:48:49.716Z,27.77
2023-09-12T10:51:17.705Z,26.30
2023-09-12T10:53:50.266Z,26.55
2023-09-12T10:56:20.136Z,26.45
2023-09-12T10:59:07.643Z,27.52
2023-09-12T11:01:38.588Z,27.08
2023-09-12T11:04:20.692Z,25.25
2023-09-12T11:06:51.636Z,22.70
2023-09-12T11:09:20.469Z,23.73
2023-09-12T11:11:49.262Z,27.05
2023-09-12T11:14:17.904Z,24.77
2023-09-12T11:17:04.844Z,23.77
2023-09-12T11:19:45.403Z,24.88
2023-09-12T11:22:27.198Z,21.27
2023-09-12T11:24:57.174Z,22.13
2023-09-12T11:27:26.495Z,21.93
2023-09-12T11:29:53.336Z,22.48
2023-09-12T11:32:33.074Z,24.40
2023-09-12T11:35:05.492Z,22.23
2023-09-12T11:37:34.268Z,21.85
2023-09-12T11:40:01.204Z,21.30
2023-09-12T11:42:28.533Z,20.88
2023-09-12T11:44:55.734Z,21.63
2023-09-12T11:47:23.046Z,19.55
2023-09-12T11:49:50.962Z,20.85
2023-09-12T11:52:17.761Z,20.23
2023-09-12T11:54:46.103Z,19.95
2023-09-12T11:57:16.323Z,18.23
2023-09-12T11:59:50.053Z,20.20
2023-09-12T12:02:17.263Z,17.50
2023-09-12T12:04:44.343Z,18.20
2023-09-12T12:07:12.301Z,19.25
2023-09-12T12:09:39.780Z,18.33
2023-09-12T12:12:13.791Z,17.73
2023-09-12T12:14:41.221Z,20.42
2023-09-12T12:17:12.079Z,19.00
2023-09-12T12:19:47.049Z,17.50
2023-09-12T12:22:13.966Z,18.42
2023-09-12T12:24:52.451Z,21.10
2023-09-12T12:27:19.464Z,21.13
2023-09-12T12:29:46.739Z,19.45
2023-09-12T12:32:17.169Z,19.95
2023-09-12T12:35:07.688Z,17.25
2023-09-12T12:37:37.913Z,17.33
2023-09-12T12:40:05.620Z,18.20
2023-09-12T12:42:51.938Z,17.80
2023-09-12T12:45:24.655Z,16.50
2023-09-12T12:48:02.342Z,15.85
2023-09-12T12:50:29.243Z,15.32
2023-09-12T12:52:55.988Z,13.95
2023-09-12T12:55:26.973Z,13.55
2023-09-12T12:57:53.724Z,14.50
2023-09-12T13:00:20.637Z,14.00
2023-09-12T13:02:47.469Z,15.73
2023-09-12T13:05:31.397Z,14.30
2023-09-12T13:07:58.121Z,15.95
2023-09-12T13:10:25.253Z,14.07
2023-09-12T13:12:52.052Z,15.07
2023-09-12T13:15:19.796Z,14.93
2023-09-12T13:17:47.216Z,15.10
2023-09-12T13:20:14.103Z,14.90
2023-09-12T13:22:41.398Z,12.90
2023-09-12T13:25:08.726Z,12.73
2023-09-12T13:27:35.638Z,14.27
2023-09-12T13:30:02.767Z,12.25
2023-09-12T13:32:29.529Z,12.48
2023-09-12T13:34:56.461Z,10.75
2023-09-12T13:37:23.237Z,11.23
2023-09-12T13:39:50.730Z,10.20
2023-09-12T13:42:22.063Z,9.00
2023-09-12T13:44:49.783Z,9.23
2023-09-12T13:47:23.327Z,8.82
2023-09-12T13:49:54.396Z,6.75
2023-09-12T13:52:24.396Z,6.25
2023-09-12T13:54:51.429Z,5.22
2023-09-12T13:57:18.458Z,4.90
2023-09-12T13:59:46.880Z,4.07
2023-09-12T14:02:14.430Z,2.92
2023-09-12T14:04:42.369Z,2.50
2023-09-12T14:07:10.198Z,2.40
2023-09-12T14:09:38.664Z,2.83
2023-09-12T14:12:09.916Z,2.78
2023-09-12T14:14:43.503Z,2.72
2023-09-12T14:17:13.127Z,2.67
2023-09-12T14:19:40.989Z,2.95
2023-09-12T14:22:08.109Z,2.72
2023-09-12T14:24:36.275Z,2.80
2023-09-12T14:27:04.447Z,2.63
2023-09-12T14:29:31.475Z,2.90
2023-09-12T14:32:01.311Z,2.10
2023-09-12T14:34:28.817Z,2.50
2023-09-12T14:36:56.855Z,2.65
2023-09-12T14:39:24.975Z,2.38
2023-09-12T14:41:55.726Z,2.92
2023-09-12T14:44:22.893Z,2.97
2023-09-12T14:46:49.773Z,2.72
2023-09-12T14:49:17.214Z,2.97
2023-09-12T14:51:44.703Z,3.10
2023-09-12T14:54:11.686Z,2.60
2023-09-12T14:56:38.621Z,3.08
2023-09-12T14:59:06.159Z,2.35
2023-09-12T15:01:33.146Z,2.95
2023-09-12T15:04:00.253Z,2.53
2023-09-12T15:06:27.163Z,3.20
2023-09-12T15:08:54.353Z,2.65
2023-09-12T15:11:21.030Z,3.10
2023-09-12T15:13:48.680Z,3.28
2023-09-12T15:16:15.908Z,3.05
2023-09-12T15:18:43.349Z,2.75
2023-09-12T15:21:10.209Z,3.38
2023-09-12T15:23:36.931Z,3.22
2023-09-12T15:26:03.758Z,2.58
2023-09-12T15:28:30.588Z,3.03
2023-09-12T15:30:57.633Z,2.75
2023-09-12T15:33:24.877Z,3.53
2023-09-12T15:35:51.646Z,3.60
2023-09-12T15:38:18.394Z,3.33
2023-09-12T15:40:45.136Z,3.83
2023-09-12T15:43:25.310Z,3.55
2023-09-12T15:45:52.599Z,3.65
2023-09-12T15:48:19.769Z,3.15
2023-09-12T15:50:47.410Z,4.20
2023-09-12T15:53:14.210Z,4.57
2023-09-12T15:55:40.920Z,4.78
2023-09-12T15:58:07.682Z,4.40
2023-09-12T16:00:34.628Z,3.85
2023-09-12T16:03:02.296Z,3.63
2023-09-12T16:05:29.080Z,4.03
2023-09-12T16:07:55.797Z,4.75
2023-09-12T16:10:22.470Z,4.55
2023-09-12T16:12:49.402Z,4.40
2023-09-12T16:15:16.290Z,5.22
2023-09-12T16:17:44.474Z,4.65
2023-09-12T16:20:14.384Z,4.35
2023-09-12T16:22:41.908Z,4.10
2023-09-12T16:25:10.241Z,4.00
2023-09-12T16:27:37.308Z,4.38
2023-09-12T16:30:08.985Z,4.20
2023-09-12T16:32:38.727Z,4.32
2023-09-12T16:35:06.258Z,4.07
2023-09-12T16:37:33.638Z,4.35
2023-09-12T16:40:01.897Z,4.30
2023-09-12T16:42:31.753Z,4.22
2023-09-12T16:45:00.776Z,5.10
2023-09-12T16:47:28.608Z,4.82
2023-09-12T16:49:57.651Z,5.13
2023-09-12T16:52:24.455Z,5.72
2023-09-12T16:54:51.332Z,6.05
2023-09-12T16:57:18.080Z,5.22
2023-09-12T16:59:46.085Z,5.82
2023-09-12T17:02:13.660Z,5.97
2023-09-12T17:04:44.513Z,6.05
2023-09-12T17:09:39.964Z,5.57
2023-09-12T17:12:07.948Z,5.32
2023-09-12T17:14:34.825Z,5.75
2023-09-12T17:17:02.276Z,5.70
2023-09-12T17:19:29.451Z,6.32
2023-09-12T17:21:56.336Z,5.57
2023-09-12T17:24:23.215Z,6.10
2023-09-12T17:26:50.155Z,5.65
2023-09-12T17:29:16.927Z,4.93
2023-09-12T17:31:43.700Z,6.00
2023-09-12T17:34:10.711Z,6.20
2023-09-12T17:36:37.508Z,5.47
2023-09-12T17:39:04.455Z,6.28
2023-09-12T17:41:31.154Z,6.38
2023-09-12T17:43:58.151Z,5.80
2023-09-12T17:46:25.214Z,6.40
2023-09-12T17:48:52.132Z,6.20
2023-09-12T17:51:19.216Z,6.18
2023-09-12T17:53:46.067Z,5.85
2023-09-12T17:56:13.098Z,6.10
2023-09-12T17:58:39.895Z,6.00
2023-09-12T18:01:06.866Z,5.82
2023-09-12T18:03:33.837Z,5.93
2023-09-12T18:06:00.999Z,7.03
2023-09-12T18:08:27.820Z,6.70
2023-09-12T18:10:54.556Z,6.63
2023-09-12T18:13:21.447Z,7.55
2023-09-12T18:15:48.475Z,7.47
2023-09-12T18:18:15.293Z,6.63
2023-09-12T18:20:42.308Z,7.60
2023-09-12T18:23:10.111Z,7.78
2023-09-12T18:25:36.892Z,7.10
2023-09-12T18:28:03.700Z,6.05
2023-09-12T18:30:30.650Z,6.75
2023-09-12T18:32:58.017Z,7.15
2023-09-12T18:35:25.995Z,7.45
2023-09-12T18:37:53.945Z,7.68
2023-09-12T18:40:21.194Z,7.68
2023-09-12T18:42:48.470Z,7.82
2023-09-12T18:45:15.360Z,9.35
2023-09-12T18:47:42.122Z,9.43
2023-09-12T18:50:09.390Z,9.07
2023-09-12T18:52:48.698Z,9.95
2023-09-12T18:55:20.944Z,9.40
2023-09-12T18:57:47.634Z,9.15
2023-09-12T19:00:17.809Z,10.43
2023-09-12T19:02:45.503Z,9.75
2023-09-12T19:05:12.600Z,9.38
2023-09-12T19:07:39.522Z,10.20
2023-09-12T19:10:06.830Z,9.00
2023-09-12T19:12:33.574Z,8.35
2023-09-12T19:15:00.316Z,7.95
2023-09-12T19:17:28.941Z,7.13
2023-09-12T19:19:55.961Z,7.32
2023-09-12T19:22:22.672Z,6.32
2023-09-12T19:24:49.499Z,6.80
2023-09-12T19:27:16.205Z,7.13
2023-09-12T19:29:56.344Z,7.22
2023-09-12T19:32:23.469Z,7.72
2023-09-12T19:34:50.554Z,7.38
2023-09-12T19:37:17.264Z,6.40
2023-09-12T19:39:44.050Z,6.57
2023-09-12T19:42:11.125Z,5.90
2023-09-12T19:44:37.957Z,5.88
2023-09-12T19:47:05.147Z,6.35
2023-09-12T19:49:32.352Z,7.07
2023-09-12T19:51:59.270Z,7.13
2023-09-12T19:54:26.101Z,7.47
2023-09-12T19:56:52.824Z,7.82
2023-09-12T19:59:19.602Z,7.70
2023-09-12T20:01:46.397Z,7.70
2023-09-12T20:04:13.243Z,8.77
2023-09-12T20:06:40.020Z,7.32
2023-09-12T20:09:11.675Z,9.23
2023-09-12T20:11:38.984Z,8.15
2023-09-12T20:14:05.708Z,8.00
2023-09-12T20:16:32.575Z,7.63
2023-09-12T20:18:59.551Z,7.55
2023-09-12T20:21:26.287Z,8.20
2023-09-12T20:23:52.978Z,8.18
2023-09-12T20:26:19.784Z,8.43
2023-09-12T20:28:46.569Z,8.63
2023-09-12T20:31:13.357Z,9.63
2023-09-12T20:33:40.259Z,9.32
2023-09-12T20:36:08.123Z,9.57
2023-09-12T20:38:34.830Z,10.48
2023-09-12T20:41:01.581Z,9.07
2023-09-12T20:43:28.937Z,8.77
2023-09-12T20:45:55.910Z,10.68
2023-09-12T20:48:23.224Z,10.70
2023-09-12T20:50:50.217Z,9.23
2023-09-12T20:53:18.110Z,10.93
2023-09-12T20:55:45.472Z,9.07
2023-09-12T20:58:15.399Z,8.88
2023-09-12T21:00:44.520Z,9.30
2023-09-12T21:03:12.970Z,9.75
2023-09-12T21:05:39.919Z,9.90
2023-09-12T21:08:06.822Z,9.20
2023-09-12T21:10:33.632Z,10.40
2023-09-12T21:13:00.762Z,10.25
2023-09-12T21:15:28.650Z,9.57
2023-09-12T21:17:55.408Z,9.30
2023-09-12T21:20:22.333Z,8.38
2023-09-12T21:22:49.119Z,8.52
2023-09-12T21:25:17.003Z,9.02
2023-09-12T21:27:43.754Z,9.35
2023-09-12T21:30:11.345Z,9.10
2023-09-12T21:32:38.124Z,9.45
2023-09-12T21:35:24.092Z,9.38
2023-09-12T21:37:50.820Z,8.30
2023-09-12T21:40:17.874Z,8.73
2023-09-12T21:42:44.764Z,8.00
2023-09-12T21:45:16.063Z,8.10
2023-09-12T21:47:44.704Z,8.60
2023-09-12T21:50:12.155Z,8.75
2023-09-12T21:52:39.651Z,7.93
2023-09-12T21:55:06.758Z,8.50
2023-09-12T21:57:34.876Z,7.78
2023-09-12T22:00:13.446Z,7.82
2023-09-12T22:02:40.711Z,8.07
2023-09-12T22:05:07.763Z,7.75
2023-09-12T22:07:35.060Z,7.60
2023-09-12T22:10:02.297Z,7.90
2023-09-12T22:12:29.071Z,6.65
2023-09-12T22:14:55.786Z,7.80
2023-09-12T22:17:25.112Z,6.93
2023-09-12T22:19:53.682Z,7.22
2023-09-12T22:22:22.175Z,6.78
2023-09-12T22:24:49.436Z,6.97
2023-09-12T22:27:16.166Z,6.93
2023-09-12T22:29:42.811Z,7.25
2023-09-12T22:32:10.484Z,6.85
2023-09-12T22:34:38.133Z,6.47
2023-09-12T22:37:04.924Z,6.00
2023-09-12T22:39:32.338Z,8.20
2023-09-12T22:41:59.062Z,7.38
2023-09-12T22:44:25.794Z,6.22
2023-09-12T22:46:52.535Z,6.82
2023-09-12T22:49:19.321Z,6.90
2023-09-12T22:51:46.090Z,7.32
2023-09-12T22:54:12.809Z,8.88
2023-09-12T22:56:39.539Z,7.72
2023-09-12T22:59:06.271Z,9.18
2023-09-12T23:01:33.116Z,8.60
2023-09-12T23:04:00.101Z,8.00
2023-09-12T23:06:27.985Z,8.85
2023-09-12T23:08:54.717Z,8.77
2023-09-12T23:11:21.516Z,9.10
2023-09-12T23:13:48.256Z,8.43
2023-09-12T23:16:15.027Z,9.05
2023-09-12T23:18:41.842Z,7.95
2023-09-12T23:21:08.520Z,7.25
2023-09-12T23:23:35.283Z,7.28
2023-09-12T23:26:02.050Z,6.53
2023-09-12T23:28:31.172Z,6.22
2023-09-12T23:31:00.584Z,5.55
2023-09-12T23:33:27.465Z,6.15
2023-09-12T23:35:54.296Z,6.63
2023-09-12T23:38:21.004Z,7.65
2023-09-12T23:40:47.825Z,6.80
2023-09-12T23:43:14.559Z,8.90
2023-09-12T23:45:42.354Z,7.70
2023-09-12T23:48:09.266Z,7.05
2023-09-12T23:50:36.010Z,8.02
2023-09-12T23:53:02.771Z,8.38
2023-09-12T23:55:29.491Z,7.70
2023-09-12T23:57:56.206Z,7.65
